createdAt,value
2018-05-31T00:01:00.421Z,62.00
2018-05-31T00:03:32.969Z,61.70
2018-05-31T00:06:05.528Z,61.50
2018-05-31T00:08:38.129Z,61.30
2018-05-31T00:11:10.674Z,61.40
2018-05-31T00:13:43.222Z,61.40
2018-05-31T00:16:15.794Z,61.10
2018-05-31T00:18:48.333Z,60.90
2018-05-31T00:21:20.894Z,60.90
2018-05-31T00:23:53.465Z,60.80
2018-05-31T00:26:26.037Z,60.80
2018-05-31T00:28:59.371Z,61.00
2018-05-31T00:31:31.917Z,61.00
2018-05-31T00:34:04.530Z,61.20
2018-05-31T00:36:37.922Z,61.30
2018-05-31T00:39:10.492Z,61.30
2018-05-31T00:41:43.037Z,61.20
2018-05-31T00:44:15.601Z,61.30
2018-05-31T00:46:48.185Z,61.50
2018-05-31T00:49:20.742Z,61.50
2018-05-31T00:51:53.300Z,61.70
2018-05-31T00:54:25.841Z,61.50
2018-05-31T00:56:58.497Z,62.00
2018-05-31T00:59:31.035Z,62.00
2018-05-31T01:02:03.735Z,62.00
2018-05-31T01:04:36.311Z,62.00
2018-05-31T01:07:09.055Z,62.30
2018-05-31T01:09:41.624Z,62.30
2018-05-31T01:12:14.205Z,62.30
2018-05-31T01:14:46.746Z,62.40
2018-05-31T01:17:19.425Z,62.40
2018-05-31T01:19:51.964Z,62.80
2018-05-31T01:22:24.526Z,62.60
2018-05-31T01:24:57.073Z,62.70
2018-05-31T01:27:29.659Z,62.90
2018-05-31T01:30:02.197Z,62.60
2018-05-31T01:32:34.934Z,62.80
2018-05-31T01:35:07.529Z,62.90
2018-05-31T01:37:40.842Z,63.20
2018-05-31T01:40:14.152Z,63.30
2018-05-31T01:42:47.484Z,63.30
2018-05-31T01:45:20.017Z,63.30
2018-05-31T01:47:52.597Z,63.40
2018-05-31T01:50:25.136Z,63.40
2018-05-31T01:52:57.694Z,63.40
2018-05-31T01:55:30.223Z,63.50
2018-05-31T01:58:02.760Z,63.40
2018-05-31T02:00:35.279Z,63.40
2018-05-31T02:03:07.811Z,63.40
2018-05-31T02:05:40.335Z,63.80
2018-05-31T02:08:12.912Z,63.80
2018-05-31T02:10:45.440Z,63.80
2018-05-31T02:13:18.852Z,64.20
2018-05-31T02:15:51.392Z,64.10
2018-05-31T02:18:23.938Z,64.10
2018-05-31T02:20:57.224Z,64.90
2018-05-31T02:23:29.777Z,64.80
2018-05-31T02:26:02.313Z,64.50
2018-05-31T02:28:34.868Z,64.80
2018-05-31T02:31:07.401Z,65.20
2018-05-31T02:33:40.724Z,64.80
2018-05-31T02:36:13.248Z,64.80
2018-05-31T02:38:45.785Z,65.40
2018-05-31T02:41:19.081Z,65.70
2018-05-31T02:43:51.648Z,65.60
2018-05-31T02:46:24.180Z,65.70
2018-05-31T02:48:56.741Z,65.90
2018-05-31T02:51:29.276Z,65.60
2018-05-31T02:54:01.817Z,65.60
2018-05-31T02:56:34.361Z,66.00
2018-05-31T02:59:06.944Z,66.10
2018-05-31T03:01:39.476Z,66.20
2018-05-31T03:04:12.012Z,66.20
2018-05-31T03:06:44.532Z,66.30
2018-05-31T03:09:17.148Z,66.20
2018-05-31T03:11:49.691Z,66.60
2018-05-31T03:14:22.216Z,66.70
2018-05-31T03:16:54.743Z,66.60
2018-05-31T03:19:28.043Z,67.00
2018-05-31T03:22:00.573Z,67.00
2018-05-31T03:24:33.134Z,66.90
2018-05-31T03:27:06.428Z,67.00
2018-05-31T03:29:38.964Z,66.90
2018-05-31T03:32:11.512Z,66.70
2018-05-31T03:34:44.835Z,67.50
2018-05-31T03:37:18.140Z,67.40
2018-05-31T03:39:51.464Z,67.40
2018-05-31T03:42:24.041Z,67.40
2018-05-31T03:44:56.929Z,67.60
2018-05-31T03:47:30.240Z,68.10
2018-05-31T03:50:03.672Z,67.60
2018-05-31T03:52:36.964Z,67.30
2018-05-31T03:55:10.272Z,67.80
2018-05-31T03:57:43.564Z,67.00
2018-05-31T04:00:16.124Z,67.00
2018-05-31T04:02:48.684Z,68.00
2018-05-31T04:05:21.241Z,67.30
2018-05-31T04:07:54.577Z,68.60
2018-05-31T04:10:27.149Z,68.70
2018-05-31T04:12:59.738Z,68.70
2018-05-31T04:15:32.266Z,68.70
2018-05-31T04:18:04.783Z,69.30
2018-05-31T04:20:37.335Z,71.60
2018-05-31T04:23:09.887Z,73.20
2018-05-31T04:25:43.224Z,75.90
2018-05-31T04:28:15.747Z,75.80
2018-05-31T04:30:48.300Z,75.70
2018-05-31T04:33:20.828Z,76.80
2018-05-31T04:35:53.380Z,75.80
2018-05-31T04:38:25.913Z,75.30
2018-05-31T04:40:58.472Z,76.10
2018-05-31T04:43:31.018Z,75.60
2018-05-31T04:46:04.363Z,76.40
2018-05-31T04:48:37.687Z,75.80
2018-05-31T04:51:10.253Z,75.80
2018-05-31T04:53:42.776Z,75.80
2018-05-31T04:56:15.335Z,76.90
2018-05-31T04:58:47.867Z,76.00
2018-05-31T05:01:20.429Z,76.00
2018-05-31T05:03:52.953Z,76.20
2018-05-31T05:06:25.506Z,77.50
2018-05-31T05:08:58.032Z,77.40
2018-05-31T05:11:30.586Z,77.50
2018-05-31T05:14:03.115Z,76.80
2018-05-31T05:16:35.671Z,77.90
2018-05-31T05:19:08.223Z,78.60
2018-05-31T05:21:40.803Z,78.80
2018-05-31T05:24:14.108Z,78.30
2018-05-31T05:26:47.411Z,77.60
2018-05-31T05:29:20.718Z,78.00
2018-05-31T05:31:54.060Z,79.00
2018-05-31T05:34:26.592Z,78.80
2018-05-31T05:36:59.155Z,79.00
2018-05-31T05:39:31.710Z,78.60
2018-05-31T05:42:05.032Z,80.70
2018-05-31T05:44:38.480Z,79.30
2018-05-31T05:47:11.052Z,79.40
2018-05-31T05:49:43.595Z,78.30
2018-05-31T05:52:16.176Z,79.40
2018-05-31T05:54:48.768Z,79.70
2018-05-31T05:57:21.332Z,77.30
2018-05-31T05:59:53.867Z,78.00
2018-05-31T06:02:27.184Z,78.40
2018-05-31T06:04:59.723Z,78.30
2018-05-31T06:07:32.341Z,78.30
2018-05-31T06:10:05.689Z,76.20
2018-05-31T06:12:38.212Z,76.80
2018-05-31T06:15:10.752Z,76.50
2018-05-31T06:17:43.320Z,76.40
2018-05-31T06:20:16.620Z,76.10
2018-05-31T06:22:49.164Z,76.00
2018-05-31T06:25:21.696Z,76.60
2018-05-31T06:27:54.260Z,77.20
2018-05-31T06:30:26.813Z,76.10
2018-05-31T06:32:59.378Z,75.90
2018-05-31T06:35:32.725Z,74.80
2018-05-31T06:38:05.298Z,74.80
2018-05-31T06:40:38.589Z,74.50
2018-05-31T06:43:11.925Z,73.70
2018-05-31T06:45:44.501Z,73.70
2018-05-31T06:48:17.847Z,74.70
2018-05-31T06:50:50.375Z,73.80
2018-05-31T06:53:22.923Z,73.40
2018-05-31T06:55:55.508Z,73.70
2018-05-31T06:58:28.071Z,73.70
2018-05-31T07:01:01.359Z,72.50
2018-05-31T07:03:33.908Z,72.40
2018-05-31T07:06:06.453Z,73.30
2018-05-31T07:08:39.756Z,72.40
2018-05-31T07:11:12.277Z,72.20
2018-05-31T07:13:44.844Z,71.60
2018-05-31T07:16:17.371Z,71.80
2018-05-31T07:18:49.924Z,71.70
2018-05-31T07:21:22.453Z,70.60
2018-05-31T07:23:55.025Z,70.70
2018-05-31T07:26:27.555Z,69.90
2018-05-31T07:29:00.093Z,70.90
2018-05-31T07:31:32.612Z,70.50
2018-05-31T07:34:05.148Z,70.00
2018-05-31T07:36:37.688Z,70.10
2018-05-31T07:39:10.248Z,69.50
2018-05-31T07:41:42.788Z,68.40
2018-05-31T07:44:15.361Z,69.10
2018-05-31T07:46:47.883Z,68.90
2018-05-31T07:49:20.483Z,68.20
2018-05-31T07:51:53.011Z,67.60
2018-05-31T07:54:25.591Z,68.90
2018-05-31T07:56:58.149Z,68.90
2018-05-31T07:59:30.719Z,68.80
2018-05-31T08:02:03.247Z,67.70
2018-05-31T08:04:36.579Z,66.70
2018-05-31T08:07:09.116Z,66.70
2018-05-31T08:09:41.647Z,68.00
2018-05-31T08:12:14.189Z,67.70
2018-05-31T08:14:46.727Z,67.50
2018-05-31T08:17:19.252Z,65.70
2018-05-31T08:19:51.826Z,66.70
2018-05-31T08:22:24.350Z,64.60
2018-05-31T08:24:56.884Z,65.00
2018-05-31T08:27:29.436Z,63.90
2018-05-31T08:30:01.990Z,64.60
2018-05-31T08:32:34.537Z,62.60
2018-05-31T08:35:07.278Z,61.20
2018-05-31T08:37:39.811Z,61.90
2018-05-31T08:40:12.352Z,61.40
2018-05-31T08:42:44.899Z,60.80
2018-05-31T08:45:18.220Z,60.10
2018-05-31T08:47:50.755Z,60.00
2018-05-31T08:50:23.292Z,60.60
2018-05-31T08:52:55.844Z,59.10
2018-05-31T08:55:28.399Z,58.10
2018-05-31T08:58:00.916Z,58.80
2018-05-31T09:00:33.452Z,56.40
2018-05-31T09:03:05.981Z,57.20
2018-05-31T09:05:38.540Z,55.40
2018-05-31T09:08:11.065Z,54.10
2018-05-31T09:10:43.622Z,56.30
2018-05-31T09:13:16.156Z,54.10
2018-05-31T09:15:48.703Z,52.30
2018-05-31T09:18:21.240Z,51.40
2018-05-31T09:20:53.800Z,53.00
2018-05-31T09:23:26.316Z,53.40
2018-05-31T09:25:58.852Z,53.30
2018-05-31T09:28:31.407Z,51.30
2018-05-31T09:31:03.936Z,51.20
2018-05-31T09:33:36.474Z,51.60
2018-05-31T09:36:09.025Z,50.90
2018-05-31T09:38:41.546Z,51.50
2018-05-31T09:41:14.136Z,50.50
2018-05-31T09:43:46.615Z,49.40
2018-05-31T09:46:19.184Z,48.10
2018-05-31T09:48:51.700Z,48.90
2018-05-31T09:51:24.252Z,46.30
2018-05-31T09:53:56.776Z,45.00
2018-05-31T09:56:29.328Z,45.60
2018-05-31T09:59:02.608Z,45.80
2018-05-31T10:01:35.157Z,45.90
2018-05-31T10:04:07.673Z,45.10
2018-05-31T10:06:40.194Z,42.20
2018-05-31T10:09:12.714Z,38.10
2018-05-31T10:11:45.251Z,37.00
2018-05-31T10:14:17.772Z,38.30
2018-05-31T10:16:50.311Z,40.40
2018-05-31T10:19:22.828Z,37.60
2018-05-31T10:21:56.144Z,41.40
2018-05-31T10:24:29.433Z,39.00
2018-05-31T10:27:01.981Z,38.90
2018-05-31T10:29:34.501Z,38.50
2018-05-31T10:32:07.051Z,35.80
2018-05-31T10:34:39.573Z,35.70
2018-05-31T10:37:12.150Z,34.20
2018-05-31T10:39:44.674Z,33.60
2018-05-31T10:42:17.209Z,35.00
2018-05-31T10:44:49.724Z,37.00
2018-05-31T10:47:22.272Z,35.20
2018-05-31T10:49:54.791Z,36.00
2018-05-31T10:52:27.340Z,33.00
2018-05-31T10:55:00.942Z,36.10
2018-05-31T10:57:33.499Z,36.50
2018-05-31T11:00:06.020Z,36.60
2018-05-31T11:02:39.343Z,31.80
2018-05-31T11:05:12.644Z,32.20
2018-05-31T11:07:45.960Z,34.40
2018-05-31T11:10:18.475Z,34.40
2018-05-31T11:12:51.016Z,34.70
2018-05-31T11:15:24.299Z,32.70
2018-05-31T11:17:56.833Z,32.30
2018-05-31T11:20:29.367Z,31.60
2018-05-31T11:23:01.907Z,31.50
2018-05-31T11:25:35.192Z,33.30
2018-05-31T11:28:08.503Z,31.10
2018-05-31T11:30:41.804Z,33.90
2018-05-31T11:33:14.344Z,33.80
2018-05-31T11:35:46.860Z,31.50
2018-05-31T11:38:19.411Z,32.90
2018-05-31T11:40:51.932Z,32.10
2018-05-31T11:43:24.472Z,33.40
2018-05-31T11:45:57.761Z,33.60
2018-05-31T11:48:30.315Z,33.60
2018-05-31T11:51:02.839Z,32.30
2018-05-31T11:53:35.376Z,31.90
2018-05-31T11:56:07.907Z,30.20
2018-05-31T11:58:40.452Z,32.50
2018-05-31T12:01:13.222Z,33.10
2018-05-31T12:03:45.807Z,31.70
2018-05-31T12:06:18.324Z,31.30
2018-05-31T12:08:50.859Z,30.00
2018-05-31T12:11:23.371Z,30.10
2018-05-31T12:13:56.691Z,30.50
2018-05-31T12:16:29.979Z,30.10
2018-05-31T12:19:02.523Z,30.00
2018-05-31T12:21:35.036Z,31.10
2018-05-31T12:24:07.595Z,31.20
2018-05-31T12:26:40.110Z,31.10
2018-05-31T12:29:12.645Z,30.90
2018-05-31T12:31:45.931Z,30.60
2018-05-31T12:34:18.493Z,30.50
2018-05-31T12:36:51.023Z,31.80
2018-05-31T12:39:23.568Z,30.40
2018-05-31T12:41:56.085Z,30.10
2018-05-31T12:44:28.640Z,31.20
2018-05-31T12:47:01.177Z,29.80
2018-05-31T12:49:33.727Z,31.90
2018-05-31T12:52:06.244Z,31.60
2018-05-31T12:54:38.776Z,32.20
2018-05-31T12:57:11.303Z,32.90
2018-05-31T12:59:43.862Z,32.10
2018-05-31T13:02:16.404Z,31.00
2018-05-31T13:04:48.972Z,30.40
2018-05-31T13:07:21.495Z,31.50
2018-05-31T13:09:54.036Z,30.50
2018-05-31T13:12:26.595Z,29.80
2018-05-31T13:14:59.207Z,30.70
2018-05-31T13:17:32.451Z,32.40
2018-05-31T13:20:05.014Z,32.30
2018-05-31T13:22:37.539Z,32.80
2018-05-31T13:25:10.085Z,31.10
2018-05-31T13:27:42.605Z,30.30
2018-05-31T13:30:15.155Z,29.90
2018-05-31T13:32:47.676Z,30.90
2018-05-31T13:35:20.237Z,29.70
2018-05-31T13:37:52.753Z,31.40
2018-05-31T13:40:25.323Z,31.10
2018-05-31T13:42:57.849Z,30.00
2018-05-31T13:45:30.382Z,29.90
2018-05-31T13:48:02.896Z,30.40
2018-05-31T13:50:35.443Z,30.90
2018-05-31T13:53:08.724Z,31.60
2018-05-31T13:55:41.276Z,31.50
2018-05-31T13:58:13.792Z,32.70
2018-05-31T14:00:46.329Z,33.30
2018-05-31T14:03:18.846Z,31.70
2018-05-31T14:05:51.405Z,32.40
2018-05-31T14:08:23.924Z,30.70
2018-05-31T14:10:56.474Z,31.90
2018-05-31T14:13:29.751Z,32.50
2018-05-31T14:16:02.310Z,32.50
2018-05-31T14:18:34.833Z,31.80
2018-05-31T14:21:07.388Z,31.00
2018-05-31T14:23:39.918Z,32.30
2018-05-31T14:26:12.457Z,31.80
2018-05-31T14:28:44.983Z,29.70
2018-05-31T14:31:17.546Z,29.70
2018-05-31T14:33:50.073Z,30.60
2018-05-31T14:36:22.624Z,31.50
2018-05-31T14:38:55.144Z,31.80
2018-05-31T14:41:27.723Z,32.60
2018-05-31T14:44:00.240Z,32.50
2018-05-31T14:46:32.782Z,32.70
2018-05-31T14:49:06.115Z,33.00
2018-05-31T14:51:39.399Z,32.80
2018-05-31T14:54:12.755Z,32.90
2018-05-31T14:56:45.346Z,32.90
2018-05-31T14:59:17.830Z,33.00
2018-05-31T15:01:50.393Z,32.90
2018-05-31T15:04:22.911Z,33.20
2018-05-31T15:06:55.481Z,32.30
2018-05-31T15:09:28.013Z,33.10
2018-05-31T15:12:01.333Z,32.40
2018-05-31T15:14:33.857Z,32.20
2018-05-31T15:17:06.431Z,31.90
2018-05-31T15:19:38.948Z,32.10
2018-05-31T15:22:11.485Z,32.60
2018-05-31T15:24:44.047Z,32.70
2018-05-31T15:27:17.376Z,33.70
2018-05-31T15:29:49.901Z,33.60
2018-05-31T15:32:22.468Z,34.10
2018-05-31T15:34:55.014Z,34.20
2018-05-31T15:37:27.559Z,34.40
2018-05-31T15:40:00.081Z,34.60
2018-05-31T15:42:32.659Z,33.80
2018-05-31T15:45:05.176Z,34.60
2018-05-31T15:47:37.728Z,34.60
2018-05-31T15:50:10.256Z,34.80
2018-05-31T15:52:42.814Z,35.80
2018-05-31T15:55:15.343Z,35.60
2018-05-31T15:57:48.647Z,35.30
2018-05-31T16:00:21.947Z,35.60
2018-05-31T16:02:54.505Z,35.60
2018-05-31T16:05:27.037Z,35.70
2018-05-31T16:07:59.599Z,35.60
2018-05-31T16:10:32.238Z,36.00
2018-05-31T16:13:04.815Z,35.80
2018-05-31T16:15:38.091Z,36.20
2018-05-31T16:18:10.648Z,36.20
2018-05-31T16:20:43.165Z,36.30
2018-05-31T16:23:15.749Z,36.30
2018-05-31T16:25:48.267Z,36.20
2018-05-31T16:28:20.808Z,36.60
2018-05-31T16:30:53.323Z,36.40
2018-05-31T16:33:25.927Z,37.00
2018-05-31T16:35:58.448Z,37.90
2018-05-31T16:38:31.745Z,38.60
2018-05-31T16:41:04.272Z,38.60
2018-05-31T16:43:36.796Z,38.30
2018-05-31T16:46:09.346Z,38.10
2018-05-31T16:48:41.916Z,38.90
2018-05-31T16:51:15.224Z,39.30
2018-05-31T16:53:48.566Z,36.90
2018-05-31T16:56:21.104Z,36.80
2018-05-31T16:58:53.649Z,37.50
2018-05-31T17:01:26.159Z,37.20
2018-05-31T17:03:58.712Z,37.30
2018-05-31T17:06:31.236Z,37.00
2018-05-31T17:09:03.788Z,37.30
2018-05-31T17:11:36.310Z,37.10
2018-05-31T17:14:08.852Z,37.30
2018-05-31T17:16:42.153Z,37.20
2018-05-31T17:19:14.696Z,37.20
2018-05-31T17:21:47.225Z,37.20
2018-05-31T17:24:20.523Z,37.20
2018-05-31T17:26:53.039Z,37.10
2018-05-31T17:29:25.655Z,37.20
2018-05-31T17:31:58.244Z,36.80
2018-05-31T17:34:30.824Z,37.00
2018-05-31T17:37:03.381Z,36.70
2018-05-31T17:39:36.709Z,38.20
2018-05-31T17:42:09.993Z,37.30
2018-05-31T17:44:42.547Z,37.20
2018-05-31T17:47:15.218Z,37.10
2018-05-31T17:49:48.593Z,37.70
2018-05-31T17:52:21.152Z,38.20
2018-05-31T17:54:53.916Z,38.70
2018-05-31T17:57:26.445Z,39.00
2018-05-31T17:59:58.995Z,38.90
2018-05-31T18:02:31.511Z,39.00
2018-05-31T18:05:04.091Z,39.40
2018-05-31T18:07:36.616Z,39.30
2018-05-31T18:10:09.261Z,39.90
2018-05-31T18:12:41.805Z,40.10
2018-05-31T18:15:15.104Z,40.80
2018-05-31T18:17:47.619Z,40.80
2018-05-31T18:20:20.171Z,40.90
2018-05-31T18:22:52.691Z,41.00
2018-05-31T18:25:25.995Z,41.30
2018-05-31T18:27:58.515Z,41.30
2018-05-31T18:30:31.106Z,41.40
2018-05-31T18:33:03.669Z,41.40
2018-05-31T18:35:36.998Z,41.90
2018-05-31T18:38:09.547Z,41.80
2018-05-31T18:40:42.124Z,42.00
2018-05-31T18:43:14.700Z,42.10
2018-05-31T18:45:47.237Z,42.60
2018-05-31T18:48:20.548Z,42.80
2018-05-31T18:50:53.861Z,42.70
2018-05-31T18:53:26.388Z,42.60
2018-05-31T18:55:58.940Z,43.10
2018-05-31T18:58:31.470Z,43.20
2018-05-31T19:01:04.021Z,43.20
2018-05-31T19:03:36.565Z,43.10
2018-05-31T19:06:09.117Z,43.40
2018-05-31T19:08:41.657Z,43.30
2018-05-31T19:11:14.216Z,44.10
2018-05-31T19:13:58.052Z,44.70
2018-05-31T19:16:30.586Z,44.40
2018-05-31T19:19:08.779Z,43.90
2018-05-31T19:21:41.311Z,44.00
2018-05-31T19:24:19.612Z,44.10
2018-05-31T19:26:53.200Z,44.20
2018-05-31T19:29:25.725Z,45.20
2018-05-31T19:31:58.267Z,45.30
2018-05-31T19:34:30.909Z,45.90
2018-05-31T19:37:09.080Z,46.40
2018-05-31T19:39:41.622Z,46.90
2018-05-31T19:42:19.937Z,47.30
2018-05-31T19:44:52.478Z,48.40
2018-05-31T19:47:25.780Z,49.30
2018-05-31T19:49:58.299Z,49.30
2018-05-31T19:52:36.608Z,49.70
2018-05-31T19:55:09.136Z,50.60
2018-05-31T19:57:47.316Z,51.30
2018-05-31T20:00:25.400Z,51.70
2018-05-31T20:03:05.628Z,52.10
2018-05-31T20:05:38.145Z,51.80
2018-05-31T20:08:10.704Z,52.40
2018-05-31T20:10:43.232Z,52.70
2018-05-31T20:13:15.779Z,53.20
2018-05-31T20:15:48.301Z,53.80
2018-05-31T20:18:20.859Z,53.80
2018-05-31T20:20:53.419Z,54.00
2018-05-31T20:23:25.924Z,54.50
2018-05-31T20:25:58.440Z,54.50
2018-05-31T20:28:30.994Z,54.60
2018-05-31T20:31:03.527Z,55.00
2018-05-31T20:33:36.083Z,55.10
2018-05-31T20:36:08.600Z,55.20
2018-05-31T20:38:41.183Z,55.20
2018-05-31T20:41:13.684Z,55.50
2018-05-31T20:43:46.242Z,55.50
2018-05-31T20:46:18.752Z,55.70
2018-05-31T20:48:51.311Z,55.80
2018-05-31T20:51:23.844Z,56.20
2018-05-31T20:53:56.386Z,56.00
2018-05-31T20:56:28.905Z,55.90
2018-05-31T20:59:01.445Z,56.00
2018-05-31T21:01:34.737Z,56.90
2018-05-31T21:04:07.313Z,56.90
2018-05-31T21:06:39.834Z,56.40
2018-05-31T21:09:13.152Z,56.80
2018-05-31T21:11:45.726Z,56.80
2018-05-31T21:14:18.228Z,56.70
2018-05-31T21:16:51.507Z,57.00
2018-05-31T21:19:24.063Z,56.90
2018-05-31T21:21:56.588Z,57.10
2018-05-31T21:24:29.137Z,56.80
2018-05-31T21:27:01.652Z,57.00
2018-05-31T21:29:38.221Z,57.10
2018-05-31T21:32:10.744Z,57.00
2018-05-31T21:34:43.275Z,56.80
2018-05-31T21:37:15.797Z,57.20
2018-05-31T21:39:48.348Z,57.30
2018-05-31T21:42:20.872Z,57.20
2018-05-31T21:44:53.423Z,57.40
2018-05-31T21:47:25.943Z,57.20
2018-05-31T21:49:58.493Z,57.90
2018-05-31T21:52:31.781Z,57.60
2018-05-31T21:55:04.335Z,57.60
2018-05-31T21:57:36.868Z,57.70
2018-05-31T22:00:09.406Z,57.50
2018-05-31T22:02:41.944Z,57.40
2018-05-31T22:05:14.492Z,57.30
2018-05-31T22:07:47.023Z,57.60
2018-05-31T22:10:19.652Z,57.70
2018-05-31T22:12:52.185Z,57.80
2018-05-31T22:15:24.793Z,57.80
2018-05-31T22:17:58.129Z,57.90
2018-05-31T22:20:30.671Z,57.80
2018-05-31T22:23:03.209Z,57.70
2018-05-31T22:25:35.763Z,57.60
2018-05-31T22:28:08.292Z,58.10
2018-05-31T22:30:40.839Z,58.00
2018-05-31T22:33:13.369Z,57.60
2018-05-31T22:35:45.916Z,58.00
2018-05-31T22:38:18.436Z,57.80
2018-05-31T22:40:51.756Z,57.80
2018-05-31T22:43:24.272Z,57.80
2018-05-31T22:45:56.827Z,57.50
2018-05-31T22:48:29.359Z,57.90
2018-05-31T22:51:01.924Z,58.20
2018-05-31T22:53:34.444Z,58.20
2018-05-31T22:56:07.008Z,58.60
2018-05-31T22:58:39.533Z,58.60
2018-05-31T23:01:12.089Z,58.50
2018-05-31T23:03:44.616Z,58.40
2018-05-31T23:06:17.157Z,58.90
2018-05-31T23:08:49.675Z,58.60
2018-05-31T23:11:23.215Z,59.00
2018-05-31T23:13:55.732Z,59.40
2018-05-31T23:16:29.079Z,59.40
2018-05-31T23:19:01.608Z,59.40
2018-05-31T23:21:34.168Z,59.70
2018-05-31T23:24:06.687Z,59.70
2018-05-31T23:26:39.225Z,59.60
2018-05-31T23:29:11.752Z,59.20
2018-05-31T23:31:44.316Z,60.10
2018-05-31T23:34:16.850Z,59.90
2018-05-31T23:36:49.427Z,60.00
2018-05-31T23:39:22.006Z,60.00
2018-05-31T23:41:54.528Z,60.50
2018-05-31T23:44:27.819Z,60.90
2018-05-31T23:47:00.369Z,60.90
2018-05-31T23:49:32.927Z,60.70
2018-05-31T23:52:06.264Z,60.70
2018-05-31T23:54:38.844Z,60.60
2018-05-31T23:57:12.152Z,61.30
2018-05-31T23:59:44.731Z,61.20
